sensor_id;sensor_type;location;lat;lon;timestamp;pressure;altitude;pressure_sealevel;temperature;humidity
17593;BME280;8915;51.760;14.300;2022-11-15T00:00:08;100811.75;;;1.44;100.00
17593;BME280;8915;51.760;14.300;2022-11-15T00:02:55;100810.84;;;1.41;100.00
17593;BME280;8915;51.760;14.300;2022-11-15T00:05:40;100814.28;;;1.43;100.00
17593;BME280;8915;51.760;14.300;2022-11-15T00:08:28;100812.56;;;1.43;100.00
17593;BME280;8915;51.760;14.300;2022-11-15T00:11:13;100806.53;;;1.41;100.00
17593;BME280;8915;51.760;14.300;2022-11-15T00:13:58;100805.69;;;1.41;100.00
17593;BME280;8915;51.760;14.300;2022-11-15T00:16:46;100800.34;;;1.28;100.00
17593;BME280;8915;51.760;14.300;2022-11-15T00:19:32;100790.81;;;1.21;100.00
17593;BME280;8915;51.760;14.300;2022-11-15T00:22:18;100789.88;;;1.16;100.00
17593;BME280;8915;51.760;14.300;2022-11-15T00:25:04;100788.25;;;1.20;100.00
17593;BME280;8915;51.760;14.300;2022-11-15T00:27:49;100791.88;;;1.32;100.00
17593;BME280;8915;51.760;14.300;2022-11-15T00:30:35;100785.75;;;1.24;100.00
17593;BME280;8915;51.760;14.300;2022-11-15T00:33:20;100793.44;;;1.24;100.00
17593;BME280;8915;51.760;14.300;2022-11-15T00:36:08;100788.31;;;1.24;100.00
17593;BME280;8915;51.760;14.300;2022-11-15T00:38:54;100776.13;;;1.09;100.00
17593;BME280;8915;51.760;14.300;2022-11-15T00:41:39;100771.03;;;1.14;100.00
17593;BME280;8915;51.760;14.300;2022-11-15T00:44:24;100775.38;;;1.17;100.00
17593;BME280;8915;51.760;14.300;2022-11-15T00:47:09;100767.00;;;1.31;100.00
17593;BME280;8915;51.760;14.300;2022-11-15T00:49:54;100774.47;;;1.15;100.00
17593;BME280;8915;51.760;14.300;2022-11-15T00:52:40;100771.88;;;1.11;100.00
17593;BME280;8915;51.760;14.300;2022-11-15T00:55:25;100769.50;;;1.25;100.00
17593;BME280;8915;51.760;14.300;2022-11-15T00:58:10;100767.00;;;1.31;100.00
17593;BME280;8915;51.760;14.300;2022-11-15T01:00:55;100765.34;;;1.37;100.00
17593;BME280;8915;51.760;14.300;2022-11-15T01:03:41;100769.50;;;1.25;100.00
17593;BME280;8915;51.760;14.300;2022-11-15T01:06:26;100757.47;;;1.24;100.00
17593;BME280;8915;51.760;14.300;2022-11-15T01:09:12;100767.72;;;1.21;100.00
17593;BME280;8915;51.760;14.300;2022-11-15T01:11:58;100766.13;;;1.29;100.00
17593;BME280;8915;51.760;14.300;2022-11-15T01:14:43;100751.44;;;1.21;100.00
17593;BME280;8915;51.760;14.300;2022-11-15T01:17:28;100761.56;;;1.10;100.00
17593;BME280;8915;51.760;14.300;2022-11-15T01:20:13;100753.03;;;1.12;100.00
17593;BME280;8915;51.760;14.300;2022-11-15T01:22:58;100764.84;;;1.01;100.00
17593;BME280;8915;51.760;14.300;2022-11-15T01:25:45;100755.16;;;0.83;100.00
17593;BME280;8915;51.760;14.300;2022-11-15T01:28:30;100755.34;;;0.96;100.00
17593;BME280;8915;51.760;14.300;2022-11-15T01:31:17;100747.69;;;0.97;100.00
17593;BME280;8915;51.760;14.300;2022-11-15T01:34:02;100762.97;;;0.91;100.00
17593;BME280;8915;51.760;14.300;2022-11-15T01:36:47;100741.63;;;0.93;100.00
17593;BME280;8915;51.760;14.300;2022-11-15T01:39:32;100740.69;;;0.87;100.00
17593;BME280;8915;51.760;14.300;2022-11-15T01:42:18;100732.19;;;0.92;100.00
17593;BME280;8915;51.760;14.300;2022-11-15T01:45:04;100729.09;;;1.15;100.00
17593;BME280;8915;51.760;14.300;2022-11-15T01:47:52;100725.59;;;1.10;100.00
17593;BME280;8915;51.760;14.300;2022-11-15T01:50:39;100720.41;;;1.05;100.00
17593;BME280;8915;51.760;14.300;2022-11-15T01:53:25;100713.53;;;1.03;100.00
17593;BME280;8915;51.760;14.300;2022-11-15T01:56:13;100717.72;;;0.98;100.00
17593;BME280;8915;51.760;14.300;2022-11-15T01:59:03;100716.00;;;0.95;100.00
17593;BME280;8915;51.760;14.300;2022-11-15T02:01:50;100710.84;;;0.93;100.00
17593;BME280;8915;51.760;14.300;2022-11-15T02:04:37;100715.28;;;1.07;100.00
17593;BME280;8915;51.760;14.300;2022-11-15T02:07:25;100703.13;;;0.93;100.00
17593;BME280;8915;51.760;14.300;2022-11-15T02:10:12;100713.25;;;0.83;100.00
17593;BME280;8915;51.760;14.300;2022-11-15T02:12:59;100705.56;;;0.86;100.00
17593;BME280;8915;51.760;14.300;2022-11-15T02:15:55;100696.13;;;0.83;100.00
17593;BME280;8915;51.760;14.300;2022-11-15T02:18:46;100696.16;;;0.85;100.00
17593;BME280;8915;51.760;14.300;2022-11-15T02:21:37;100701.25;;;0.82;100.00
17593;BME280;8915;51.760;14.300;2022-11-15T02:24:40;100703.06;;;0.90;100.00
17593;BME280;8915;51.760;14.300;2022-11-15T02:27:47;100693.84;;;1.03;100.00
17593;BME280;8915;51.760;14.300;2022-11-15T02:30:41;100699.72;;;0.96;100.00
17593;BME280;8915;51.760;14.300;2022-11-15T02:33:35;100690.28;;;0.93;100.00
17593;BME280;8915;51.760;14.300;2022-11-15T02:36:29;100689.38;;;0.90;100.00
17593;BME280;8915;51.760;14.300;2022-11-15T02:39:23;100695.41;;;0.92;100.00
17593;BME280;8915;51.760;14.300;2022-11-15T02:42:14;100688.69;;;1.02;100.00
17593;BME280;8915;51.760;14.300;2022-11-15T02:45:24;100689.34;;;0.88;100.00
17593;BME280;8915;51.760;14.300;2022-11-15T02:48:15;100683.13;;;0.71;100.00
17593;BME280;8915;51.760;14.300;2022-11-15T02:51:00;100679.03;;;0.85;100.00
17593;BME280;8915;51.760;14.300;2022-11-15T02:53:46;100676.34;;;0.76;100.00
17593;BME280;8915;51.760;14.300;2022-11-15T02:56:31;100682.44;;;0.84;100.00
17593;BME280;8915;51.760;14.300;2022-11-15T02:59:43;100675.69;;;0.91;100.00
17593;BME280;8915;51.760;14.300;2022-11-15T03:02:42;100677.47;;;0.97;100.00
17593;BME280;8915;51.760;14.300;2022-11-15T03:05:37;100676.69;;;1.01;100.00
17593;BME280;8915;51.760;14.300;2022-11-15T03:08:30;100672.50;;;1.09;100.00
17593;BME280;8915;51.760;14.300;2022-11-15T03:11:18;100670.81;;;1.08;100.00
17593;BME280;8915;51.760;14.300;2022-11-15T03:14:13;100668.94;;;0.98;100.00
17593;BME280;8915;51.760;14.300;2022-11-15T03:17:09;100661.34;;;1.05;100.00
17593;BME280;8915;51.760;14.300;2022-11-15T03:19:58;100656.19;;;1.02;100.00
17593;BME280;8915;51.760;14.300;2022-11-15T03:22:47;100657.97;;;1.09;100.00
17593;BME280;8915;51.760;14.300;2022-11-15T03:25:42;100656.34;;;1.15;100.00
17593;BME280;8915;51.760;14.300;2022-11-15T03:28:34;100655.56;;;1.22;100.00
17593;BME280;8915;51.760;14.300;2022-11-15T03:31:22;100647.94;;;1.29;100.00
17593;BME280;8915;51.760;14.300;2022-11-15T03:34:29;100654.75;;;1.26;100.00
17593;BME280;8915;51.760;14.300;2022-11-15T03:37:17;100654.84;;;1.32;100.00
17593;BME280;8915;51.760;14.300;2022-11-15T03:40:08;100655.75;;;1.36;100.00
17593;BME280;8915;51.760;14.300;2022-11-15T03:43:00;100656.69;;;1.44;100.00
17593;BME280;8915;51.760;14.300;2022-11-15T03:45:50;100648.97;;;1.41;100.00
17593;BME280;8915;51.760;14.300;2022-11-15T03:48:41;100642.94;;;1.40;100.00
17593;BME280;8915;51.760;14.300;2022-11-15T03:51:28;100642.09;;;1.41;100.00
17593;BME280;8915;51.760;14.300;2022-11-15T03:54:14;100645.47;;;1.37;100.00
17593;BME280;8915;51.760;14.300;2022-11-15T03:57:00;100631.81;;;1.40;100.00
17593;BME280;8915;51.760;14.300;2022-11-15T03:59:47;100631.88;;;1.44;100.00
17593;BME280;8915;51.760;14.300;2022-11-15T04:02:32;100629.38;;;1.54;100.00
17593;BME280;8915;51.760;14.300;2022-11-15T04:05:17;100637.97;;;1.56;100.00
17593;BME280;8915;51.760;14.300;2022-11-15T04:08:02;100632.91;;;1.60;100.00
17593;BME280;8915;51.760;14.300;2022-11-15T04:10:48;100632.94;;;1.66;100.00
17593;BME280;8915;51.760;14.300;2022-11-15T04:13:34;100638.09;;;1.68;100.00
17593;BME280;8915;51.760;14.300;2022-11-15T04:16:19;100640.75;;;1.76;100.00
17593;BME280;8915;51.760;14.300;2022-11-15T04:19:04;100641.69;;;1.84;100.00
17593;BME280;8915;51.760;14.300;2022-11-15T04:22:07;100641.72;;;1.87;100.00
17593;BME280;8915;51.760;14.300;2022-11-15T04:25:10;100635.63;;;1.79;100.00
17593;BME280;8915;51.760;14.300;2022-11-15T04:27:56;100640.78;;;1.79;100.00
17593;BME280;8915;51.760;14.300;2022-11-15T04:30:42;100634.75;;;1.75;100.00
17593;BME280;8915;51.760;14.300;2022-11-15T04:33:27;100637.31;;;1.75;100.00
17593;BME280;8915;51.760;14.300;2022-11-15T04:36:12;100637.31;;;1.75;100.00
17593;BME280;8915;51.760;14.300;2022-11-15T04:39:15;100633.09;;;1.82;100.00
17593;BME280;8915;51.760;14.300;2022-11-15T04:42:00;100641.59;;;1.75;100.00
17593;BME280;8915;51.760;14.300;2022-11-15T04:44:45;100639.94;;;1.80;100.00
17593;BME280;8915;51.760;14.300;2022-11-15T04:47:32;100650.25;;;1.83;100.00
17593;BME280;8915;51.760;14.300;2022-11-15T04:50:17;100649.41;;;1.84;100.00
17593;BME280;8915;51.760;14.300;2022-11-15T04:53:02;100640.03;;;1.89;100.00
17593;BME280;8915;51.760;14.300;2022-11-15T04:55:47;100642.41;;;1.69;100.00
17593;BME280;8915;51.760;14.300;2022-11-15T04:58:32;100637.22;;;1.64;100.00
17593;BME280;8915;51.760;14.300;2022-11-15T05:01:17;100638.13;;;1.69;100.00
17593;BME280;8915;51.760;14.300;2022-11-15T05:04:04;100632.81;;;1.54;100.00
17593;BME280;8915;51.760;14.300;2022-11-15T05:07:03;100635.25;;;1.42;100.00
17593;BME280;8915;51.760;14.300;2022-11-15T05:09:48;100630.97;;;1.42;100.00
17593;BME280;8915;51.760;14.300;2022-11-15T05:12:33;100630.19;;;1.49;100.00
17593;BME280;8915;51.760;14.300;2022-11-15T05:15:18;100629.31;;;1.44;100.00
17593;BME280;8915;51.760;14.300;2022-11-15T05:18:03;100618.97;;;1.41;100.00
17593;BME280;8915;51.760;14.300;2022-11-15T05:20:50;100625.00;;;1.43;100.00
17593;BME280;8915;51.760;14.300;2022-11-15T05:23:35;100619.06;;;1.49;100.00
17593;BME280;8915;51.760;14.300;2022-11-15T05:26:20;100626.78;;;1.50;100.00
17593;BME280;8915;51.760;14.300;2022-11-15T05:29:05;100625.16;;;1.57;100.00
17593;BME280;8915;51.760;14.300;2022-11-15T05:31:50;100631.97;;;1.55;100.00
17593;BME280;8915;51.760;14.300;2022-11-15T05:34:35;100621.69;;;1.55;100.00
17593;BME280;8915;51.760;14.300;2022-11-15T05:37:22;100624.22;;;1.50;100.00
17593;BME280;8915;51.760;14.300;2022-11-15T05:40:08;100625.13;;;1.56;100.00
17593;BME280;8915;51.760;14.300;2022-11-15T05:42:54;100627.66;;;1.52;100.00
17593;BME280;8915;51.760;14.300;2022-11-15T05:45:38;100622.50;;;1.51;100.00
17593;BME280;8915;51.760;14.300;2022-11-15T05:48:24;100621.63;;;1.50;100.00
17593;BME280;8915;51.760;14.300;2022-11-15T05:51:09;100615.66;;;1.50;100.00
17593;BME280;8915;51.760;14.300;2022-11-15T05:53:56;100615.63;;;1.48;100.00
17593;BME280;8915;51.760;14.300;2022-11-15T05:56:43;100617.38;;;1.52;100.00
17593;BME280;8915;51.760;14.300;2022-11-15T05:59:29;100616.50;;;1.50;100.00
17593;BME280;8915;51.760;14.300;2022-11-15T06:02:15;100616.50;;;1.50;100.00
17593;BME280;8915;51.760;14.300;2022-11-15T06:05:00;100616.41;;;1.41;100.00
17593;BME280;8915;51.760;14.300;2022-11-15T06:07:45;100612.03;;;1.34;100.00
17593;BME280;8915;51.760;14.300;2022-11-15T06:10:32;100609.50;;;1.36;100.00
17593;BME280;8915;51.760;14.300;2022-11-15T06:13:18;100616.41;;;1.41;100.00
17593;BME280;8915;51.760;14.300;2022-11-15T06:16:03;100616.41;;;1.41;100.00
17593;BME280;8915;51.760;14.300;2022-11-15T06:18:48;100622.47;;;1.46;100.00
17593;BME280;8915;51.760;14.300;2022-11-15T06:21:33;100623.28;;;1.45;100.00
17593;BME280;8915;51.760;14.300;2022-11-15T06:24:18;100625.09;;;1.54;100.00
17593;BME280;8915;51.760;14.300;2022-11-15T06:27:05;100628.59;;;1.61;100.00
17593;BME280;8915;51.760;14.300;2022-11-15T06:29:51;100633.72;;;1.58;100.00
17593;BME280;8915;51.760;14.300;2022-11-15T06:32:36;100634.50;;;1.50;100.00
17593;BME280;8915;51.760;14.300;2022-11-15T06:35:21;100638.88;;;1.59;100.00
17593;BME280;8915;51.760;14.300;2022-11-15T06:38:07;100634.63;;;1.64;100.00
17593;BME280;8915;51.760;14.300;2022-11-15T06:40:53;100638.91;;;1.62;100.00
17593;BME280;8915;51.760;14.300;2022-11-15T06:43:40;100637.09;;;1.54;100.00
17593;BME280;8915;51.760;14.300;2022-11-15T06:46:25;100643.13;;;1.57;100.00
17593;BME280;8915;51.760;14.300;2022-11-15T06:49:10;100644.91;;;1.63;100.00
17593;BME280;8915;51.760;14.300;2022-11-15T06:51:55;100653.59;;;1.73;100.00
17593;BME280;8915;51.760;14.300;2022-11-15T06:54:40;100651.03;;;1.76;100.00
17593;BME280;8915;51.760;14.300;2022-11-15T06:57:25;100655.38;;;1.80;100.00
17593;BME280;8915;51.760;14.300;2022-11-15T07:00:12;100655.41;;;1.86;100.00
17593;BME280;8915;51.760;14.300;2022-11-15T07:02:59;100656.34;;;1.91;100.00
17593;BME280;8915;51.760;14.300;2022-11-15T07:05:51;100653.84;;;1.99;100.00
17593;BME280;8915;51.760;14.300;2022-11-15T07:08:36;100657.31;;;2.02;100.00
17593;BME280;8915;51.760;14.300;2022-11-15T07:11:21;100660.78;;;2.11;100.00
17593;BME280;8915;51.760;14.300;2022-11-15T07:14:06;100659.13;;;2.16;100.00
17593;BME280;8915;51.760;14.300;2022-11-15T07:16:53;100663.53;;;2.27;100.00
17593;BME280;8915;51.760;14.300;2022-11-15T07:19:38;100654.19;;;2.40;100.00
17593;BME280;8915;51.760;14.300;2022-11-15T07:22:23;100648.28;;;2.52;100.00
17593;BME280;8915;51.760;14.300;2022-11-15T07:25:08;100650.88;;;2.55;100.00
17593;BME280;8915;51.760;14.300;2022-11-15T07:27:54;100650.09;;;2.70;100.00
17593;BME280;8915;51.760;14.300;2022-11-15T07:30:39;100643.31;;;2.80;100.00
17593;BME280;8915;51.760;14.300;2022-11-15T07:33:25;100657.97;;;2.92;100.00
17593;BME280;8915;51.760;14.300;2022-11-15T07:36:10;100645.13;;;2.96;100.00
17593;BME280;8915;51.760;14.300;2022-11-15T07:38:56;100641.75;;;3.07;100.00
17593;BME280;8915;51.760;14.300;2022-11-15T07:41:41;100640.06;;;3.13;100.00
17593;BME280;8915;51.760;14.300;2022-11-15T07:44:27;100642.69;;;3.26;100.00
17593;BME280;8915;51.760;14.300;2022-11-15T07:47:12;100644.44;;;3.37;100.00
17593;BME280;8915;51.760;14.300;2022-11-15T07:49:58;100640.22;;;3.52;100.00
17593;BME280;8915;51.760;14.300;2022-11-15T07:52:44;100635.94;;;3.63;100.00
17593;BME280;8915;51.760;14.300;2022-11-15T07:55:29;100635.09;;;3.72;100.00
17593;BME280;8915;51.760;14.300;2022-11-15T07:58:14;100632.53;;;3.84;100.00
17593;BME280;8915;51.760;14.300;2022-11-15T08:01:02;100625.66;;;3.94;100.00
17593;BME280;8915;51.760;14.300;2022-11-15T08:03:47;100627.41;;;4.07;100.00
17593;BME280;8915;51.760;14.300;2022-11-15T08:06:33;100630.84;;;4.18;100.00
17593;BME280;8915;51.760;14.300;2022-11-15T08:09:19;100625.69;;;4.34;100.00
17593;BME280;8915;51.760;14.300;2022-11-15T08:12:04;100625.69;;;4.42;100.00
17593;BME280;8915;51.760;14.300;2022-11-15T08:14:49;100624.78;;;4.57;100.00
17593;BME280;8915;51.760;14.300;2022-11-15T08:17:34;100626.50;;;4.68;100.00
17593;BME280;8915;51.760;14.300;2022-11-15T08:20:19;100620.47;;;4.79;100.00
17593;BME280;8915;51.760;14.300;2022-11-15T08:23:06;100618.69;;;4.88;100.00
17593;BME280;8915;51.760;14.300;2022-11-15T08:25:51;100619.53;;;4.97;100.00
17593;BME280;8915;51.760;14.300;2022-11-15T08:28:37;100610.91;;;5.04;100.00
17593;BME280;8915;51.760;14.300;2022-11-15T08:31:22;100616.03;;;5.15;100.00
17593;BME280;8915;51.760;14.300;2022-11-15T08:34:07;100613.38;;;5.27;100.00
17593;BME280;8915;51.760;14.300;2022-11-15T08:36:52;100615.06;;;5.36;100.00
17593;BME280;8915;51.760;14.300;2022-11-15T08:39:38;100613.31;;;5.42;100.00
17593;BME280;8915;51.760;14.300;2022-11-15T08:42:24;100615.00;;;5.51;100.00
17593;BME280;8915;51.760;14.300;2022-11-15T08:45:09;100610.66;;;5.58;100.00
17593;BME280;8915;51.760;14.300;2022-11-15T08:47:54;100599.41;;;5.62;100.00
17593;BME280;8915;51.760;14.300;2022-11-15T08:50:40;100607.09;;;5.74;100.00
17593;BME280;8915;51.760;14.300;2022-11-15T08:53:27;100607.88;;;5.84;100.00
17593;BME280;8915;51.760;14.300;2022-11-15T08:56:14;100606.13;;;5.98;100.00
17593;BME280;8915;51.760;14.300;2022-11-15T08:59:00;100606.03;;;6.06;100.00
17593;BME280;8915;51.760;14.300;2022-11-15T09:01:45;100605.13;;;6.15;100.00
17593;BME280;8915;51.760;14.300;2022-11-15T09:04:30;100602.44;;;6.22;100.00
17593;BME280;8915;51.760;14.300;2022-11-15T09:07:16;100600.66;;;6.31;100.00
17593;BME280;8915;51.760;14.300;2022-11-15T09:10:01;100597.09;;;6.42;100.00
17593;BME280;8915;51.760;14.300;2022-11-15T09:12:48;100597.91;;;6.49;100.00
17593;BME280;8915;51.760;14.300;2022-11-15T09:15:33;100594.38;;;6.58;100.00
17593;BME280;8915;51.760;14.300;2022-11-15T09:18:18;100597.69;;;6.69;100.00
17593;BME280;8915;51.760;14.300;2022-11-15T09:21:05;100594.97;;;6.81;100.00
17593;BME280;8915;51.760;14.300;2022-11-15T09:23:51;100600.94;;;6.91;100.00
17593;BME280;8915;51.760;14.300;2022-11-15T09:26:36;100590.44;;;7.02;100.00
17593;BME280;8915;51.760;14.300;2022-11-15T09:29:22;100589.47;;;7.09;100.00
17593;BME280;8915;51.760;14.300;2022-11-15T09:32:07;100588.53;;;7.16;100.00
17593;BME280;8915;51.760;14.300;2022-11-15T09:34:52;100592.72;;;7.25;100.00
17593;BME280;8915;51.760;14.300;2022-11-15T09:37:37;100583.19;;;7.29;100.00
17593;BME280;8915;51.760;14.300;2022-11-15T09:40:22;100593.44;;;7.36;100.00
17593;BME280;8915;51.760;14.300;2022-11-15T09:43:28;100592.44;;;7.47;100.00
17593;BME280;8915;51.760;14.300;2022-11-15T09:46:20;100593.19;;;7.55;100.00
17593;BME280;8915;51.760;14.300;2022-11-15T09:49:13;100585.28;;;7.63;100.00
17593;BME280;8915;51.760;14.300;2022-11-15T09:51:59;100594.69;;;7.70;100.00
17593;BME280;8915;51.760;14.300;2022-11-15T09:54:28;100590.25;;;7.78;100.00
17593;BME280;8915;51.760;14.300;2022-11-15T09:57:03;100595.31;;;7.87;100.00
17593;BME280;8915;51.760;14.300;2022-11-15T09:59:44;100585.72;;;7.92;100.00
17593;BME280;8915;51.760;14.300;2022-11-15T10:02:23;100586.44;;;8.01;100.00
17593;BME280;8915;51.760;14.300;2022-11-15T10:04:58;100586.31;;;8.08;100.00
17593;BME280;8915;51.760;14.300;2022-11-15T10:07:28;100587.03;;;8.18;100.00
17593;BME280;8915;51.760;14.300;2022-11-15T10:10:02;100580.81;;;8.27;100.00
17593;BME280;8915;51.760;14.300;2022-11-15T10:12:31;100579.84;;;8.32;100.00
17593;BME280;8915;51.760;14.300;2022-11-15T10:15:02;100584.09;;;8.38;100.00
17593;BME280;8915;51.760;14.300;2022-11-15T10:17:52;100577.06;;;8.45;100.00
17593;BME280;8915;51.760;14.300;2022-11-15T10:20:24;100580.38;;;8.53;100.00
17593;BME280;8915;51.760;14.300;2022-11-15T10:22:53;100580.28;;;8.59;100.00
17593;BME280;8915;51.760;14.300;2022-11-15T10:25:23;100570.50;;;8.70;100.00
17593;BME280;8915;51.760;14.300;2022-11-15T10:27:53;100567.78;;;8.78;100.00
17593;BME280;8915;51.760;14.300;2022-11-15T10:30:21;100569.44;;;8.82;100.00
17593;BME280;8915;51.760;14.300;2022-11-15T10:32:49;100569.41;;;8.84;100.00
17593;BME280;8915;51.760;14.300;2022-11-15T10:35:18;100562.38;;;8.89;100.00
17593;BME280;8915;51.760;14.300;2022-11-15T10:37:45;100552.69;;;8.96;100.00
17593;BME280;8915;51.760;14.300;2022-11-15T10:40:16;100555.16;;;9.02;100.00
17593;BME280;8915;51.760;14.300;2022-11-15T10:42:43;100549.81;;;9.09;100.00
17593;BME280;8915;51.760;14.300;2022-11-15T10:45:23;100547.16;;;9.11;100.00
17593;BME280;8915;51.760;14.300;2022-11-15T10:47:51;100541.53;;;9.31;100.00
17593;BME280;8915;51.760;14.300;2022-11-15T10:50:28;100546.56;;;9.39;100.00
17593;BME280;8915;51.760;14.300;2022-11-15T10:52:56;100539.63;;;9.39;100.00
17593;BME280;8915;51.760;14.300;2022-11-15T10:55:26;100536.94;;;9.42;100.00
17593;BME280;8915;51.760;14.300;2022-11-15T10:57:55;100534.22;;;9.48;100.00
17593;BME280;8915;51.760;14.300;2022-11-15T11:00:36;100524.53;;;9.55;100.00
17593;BME280;8915;51.760;14.300;2022-11-15T11:03:08;100523.66;;;9.55;100.00
17593;BME280;8915;51.760;14.300;2022-11-15T11:06:03;100516.63;;;9.58;100.00
17593;BME280;8915;51.760;14.300;2022-11-15T11:08:29;100515.53;;;9.67;100.00
17593;BME280;8915;51.760;14.300;2022-11-15T11:10:58;100519.72;;;9.74;100.00
17593;BME280;8915;51.760;14.300;2022-11-15T11:13:26;100518.72;;;9.80;100.00
17593;BME280;8915;51.760;14.300;2022-11-15T11:15:58;100515.22;;;9.81;100.00
17593;BME280;8915;51.760;14.300;2022-11-15T11:18:31;100510.78;;;9.84;100.00
17593;BME280;8915;51.760;14.300;2022-11-15T11:21:02;100502.88;;;9.89;100.00
17593;BME280;8915;51.760;14.300;2022-11-15T11:23:38;100499.31;;;9.92;100.00
17593;BME280;8915;51.760;14.300;2022-11-15T11:26:18;100495.63;;;10.00;100.00
17593;BME280;8915;51.760;14.300;2022-11-15T11:29:00;100498.94;;;10.07;100.00
17593;BME280;8915;51.760;14.300;2022-11-15T11:31:34;100494.50;;;10.11;100.00
17593;BME280;8915;51.760;14.300;2022-11-15T11:34:13;100483.03;;;10.16;100.00
17593;BME280;8915;51.760;14.300;2022-11-15T11:36:46;100489.03;;;10.20;100.00
17593;BME280;8915;51.760;14.300;2022-11-15T11:39:24;100482.75;;;10.27;100.00
17593;BME280;8915;51.760;14.300;2022-11-15T11:42:01;100470.50;;;10.32;100.00
17593;BME280;8915;51.760;14.300;2022-11-15T11:44:34;100467.75;;;10.37;100.00
17593;BME280;8915;51.760;14.300;2022-11-15T11:47:09;100468.53;;;10.40;100.00
17593;BME280;8915;51.760;14.300;2022-11-15T11:49:42;100467.50;;;10.46;100.00
17593;BME280;8915;51.760;14.300;2022-11-15T11:52:14;100458.84;;;10.46;100.00
17593;BME280;8915;51.760;14.300;2022-11-15T11:54:48;100469.00;;;10.55;100.00
17593;BME280;8915;51.760;14.300;2022-11-15T11:57:28;100465.31;;;10.62;100.00
17593;BME280;8915;51.760;14.300;2022-11-15T12:00:03;100468.78;;;10.63;100.00
17593;BME280;8915;51.760;14.300;2022-11-15T12:02:40;100462.75;;;10.60;100.00
17593;BME280;8915;51.760;14.300;2022-11-15T12:05:13;100460.75;;;10.70;100.00
17593;BME280;8915;51.760;14.300;2022-11-15T12:07:43;100453.63;;;10.75;100.00
17593;BME280;8915;51.760;14.300;2022-11-15T12:10:22;100453.50;;;10.80;100.00
17593;BME280;8915;51.760;14.300;2022-11-15T12:12:55;100447.28;;;10.84;100.00
17593;BME280;8915;51.760;14.300;2022-11-15T12:15:24;100449.13;;;10.80;100.00
17593;BME280;8915;51.760;14.300;2022-11-15T12:17:54;100456.03;;;10.82;100.00
17593;BME280;8915;51.760;14.300;2022-11-15T12:20:26;100450.75;;;10.85;100.00
17593;BME280;8915;51.760;14.300;2022-11-15T12:22:55;100447.00;;;10.93;100.00
17593;BME280;8915;51.760;14.300;2022-11-15T12:25:27;100447.81;;;10.95;100.00
17593;BME280;8915;51.760;14.300;2022-11-15T12:27:58;100439.81;;;11.02;100.00
17593;BME280;8915;51.760;14.300;2022-11-15T12:30:38;100435.41;;;11.04;100.00
17593;BME280;8915;51.760;14.300;2022-11-15T12:33:29;100437.97;;;11.05;100.00
17593;BME280;8915;51.760;14.300;2022-11-15T12:35:59;100430.94;;;11.07;100.00
17593;BME280;8915;51.760;14.300;2022-11-15T12:38:55;100428.19;;;11.12;100.00
17593;BME280;8915;51.760;14.300;2022-11-15T12:41:25;100418.72;;;11.08;100.00
17593;BME280;8915;51.760;14.300;2022-11-15T12:43:52;100421.47;;;11.05;100.00
17593;BME280;8915;51.760;14.300;2022-11-15T12:49:09;100410.91;;;11.08;100.00
17593;BME280;8915;51.760;14.300;2022-11-15T12:52:05;100408.16;;;11.12;100.00
17593;BME280;8915;51.760;14.300;2022-11-15T12:54:57;100407.31;;;11.12;100.00
17593;BME280;8915;51.760;14.300;2022-11-15T12:57:29;100402.84;;;11.15;100.00
17593;BME280;8915;51.760;14.300;2022-11-15T12:59:58;100404.53;;;11.16;100.00
17593;BME280;8915;51.760;14.300;2022-11-15T13:02:29;100399.19;;;11.21;100.00
17593;BME280;8915;51.760;14.300;2022-11-15T13:08:03;100393.91;;;11.23;100.00
17593;BME280;8915;51.760;14.300;2022-11-15T13:10:31;100392.91;;;11.27;100.00
17593;BME280;8915;51.760;14.300;2022-11-15T13:12:59;100397.25;;;11.28;100.00
17593;BME280;8915;51.760;14.300;2022-11-15T13:18:27;100386.97;;;11.22;100.00
17593;BME280;8915;51.760;14.300;2022-11-15T13:20:54;100385.34;;;11.19;100.00
17593;BME280;8915;51.760;14.300;2022-11-15T13:23:22;100373.97;;;11.20;100.00
17593;BME280;8915;51.760;14.300;2022-11-15T13:25:57;100377.56;;;11.17;100.00
17593;BME280;8915;51.760;14.300;2022-11-15T13:28:32;100381.94;;;11.17;100.00
17593;BME280;8915;51.760;14.300;2022-11-15T13:31:01;100378.56;;;11.13;100.00
17593;BME280;8915;51.760;14.300;2022-11-15T13:33:31;100376.06;;;11.10;100.00
17593;BME280;8915;51.760;14.300;2022-11-15T13:35:59;100373.41;;;11.12;100.00
17593;BME280;8915;51.760;14.300;2022-11-15T13:38:29;100377.78;;;11.10;100.00
17593;BME280;8915;51.760;14.300;2022-11-15T13:40:57;100363.06;;;11.09;100.00
17593;BME280;8915;51.760;14.300;2022-11-15T13:43:29;100360.59;;;11.04;100.00
17593;BME280;8915;51.760;14.300;2022-11-15T13:46:10;100359.78;;;11.02;100.00
17593;BME280;8915;51.760;14.300;2022-11-15T13:48:36;100368.44;;;11.03;100.00
17593;BME280;8915;51.760;14.300;2022-11-15T13:51:05;100360.75;;;10.99;100.00
17593;BME280;8915;51.760;14.300;2022-11-15T13:53:38;100358.13;;;10.99;100.00
17593;BME280;8915;51.760;14.300;2022-11-15T13:56:06;100355.53;;;10.99;100.00
17593;BME280;8915;51.760;14.300;2022-11-15T13:58:32;100353.00;;;10.96;100.00
17593;BME280;8915;51.760;14.300;2022-11-15T14:01:00;100351.47;;;10.91;100.00
17593;BME280;8915;51.760;14.300;2022-11-15T14:03:28;100345.53;;;10.86;100.00
17593;BME280;8915;51.760;14.300;2022-11-15T14:06:03;100353.91;;;10.95;100.00
17593;BME280;8915;51.760;14.300;2022-11-15T14:08:32;100348.72;;;10.94;100.00
17593;BME280;8915;51.760;14.300;2022-11-15T14:11:13;100340.50;;;10.79;100.00
17593;BME280;8915;51.760;14.300;2022-11-15T14:13:42;100343.50;;;10.67;100.00
17593;BME280;8915;51.760;14.300;2022-11-15T14:16:13;100345.53;;;10.57;100.00